createdAt,value
2018-11-10T00:01:34.461Z,85.93
2018-11-10T00:04:02.254Z,86.21
2018-11-10T00:06:29.905Z,85.17
2018-11-10T00:08:57.580Z,85.53
2018-11-10T00:11:25.260Z,85.52
2018-11-10T00:13:52.897Z,85.15
2018-11-10T00:16:20.625Z,85.94
2018-11-10T00:18:48.337Z,85.33
2018-11-10T00:21:16.086Z,85.89
2018-11-10T00:23:43.866Z,85.27
2018-11-10T00:26:11.549Z,85.89
2018-11-10T00:28:39.293Z,85.80
2018-11-10T00:31:06.969Z,85.82
2018-11-10T00:33:34.721Z,85.73
2018-11-10T00:36:02.449Z,86.63
2018-11-10T00:38:30.189Z,85.71
2018-11-10T00:40:57.977Z,85.70
2018-11-10T00:43:25.752Z,85.67
2018-11-10T00:45:53.461Z,86.62
2018-11-10T00:48:21.205Z,85.64
2018-11-10T00:50:48.960Z,86.45
2018-11-10T00:53:16.647Z,86.13
2018-11-10T00:55:44.352Z,86.07
2018-11-10T00:58:12.089Z,86.58
2018-11-10T01:00:39.709Z,85.64
2018-11-10T01:03:07.470Z,85.21
2018-11-10T01:05:35.219Z,86.12
2018-11-10T01:08:02.929Z,85.77
2018-11-10T01:10:30.619Z,86.29
2018-11-10T01:12:58.240Z,86.75
2018-11-10T01:15:26.916Z,86.12
2018-11-10T01:17:54.651Z,86.01
2018-11-10T01:20:22.438Z,86.76
2018-11-10T01:22:50.101Z,85.94
2018-11-10T01:25:17.800Z,86.40
2018-11-10T01:27:45.501Z,86.04
2018-11-10T01:30:14.580Z,85.69
2018-11-10T01:32:43.190Z,86.14
2018-11-10T01:35:11.081Z,85.38
2018-11-10T01:37:38.745Z,87.40
2018-11-10T01:40:08.969Z,86.45
2018-11-10T01:42:36.713Z,87.04
2018-11-10T01:45:06.731Z,86.72
2018-11-10T01:47:34.499Z,86.21
2018-11-10T01:50:02.245Z,85.79
2018-11-10T01:52:29.910Z,85.47
2018-11-10T01:54:57.620Z,85.85
2018-11-10T01:57:25.533Z,86.60
2018-11-10T01:59:53.303Z,86.13
2018-11-10T02:02:20.961Z,86.98
2018-11-10T02:04:48.661Z,86.76
2018-11-10T02:07:16.356Z,87.28
2018-11-10T02:09:44.052Z,87.25
2018-11-10T02:12:14.276Z,86.63
2018-11-10T02:14:42.177Z,87.26
2018-11-10T02:17:09.865Z,87.94
2018-11-10T02:19:37.572Z,87.33
2018-11-10T02:22:05.312Z,87.02
2018-11-10T02:24:33.097Z,86.45
2018-11-10T02:27:00.833Z,85.87
2018-11-10T02:29:28.534Z,86.66
2018-11-10T02:31:56.252Z,86.86
2018-11-10T02:34:28.784Z,87.33
2018-11-10T02:36:56.657Z,88.17
2018-11-10T02:39:24.373Z,88.21
2018-11-10T02:41:52.177Z,87.51
2018-11-10T02:44:19.928Z,87.55
2018-11-10T02:46:47.597Z,87.35
2018-11-10T02:49:15.333Z,86.92
2018-11-10T02:51:42.993Z,86.98
2018-11-10T02:54:10.681Z,87.10
2018-11-10T02:56:38.433Z,86.78
2018-11-10T02:59:06.589Z,86.88
2018-11-10T03:01:34.237Z,87.27
2018-11-10T03:04:01.967Z,86.94
2018-11-10T03:06:29.605Z,86.63
2018-11-10T03:08:57.356Z,86.35
2018-11-10T03:11:25.013Z,86.63
2018-11-10T03:13:52.677Z,86.45
2018-11-10T03:16:20.459Z,86.62
2018-11-10T03:18:48.140Z,86.69
2018-11-10T03:21:15.867Z,86.53
2018-11-10T03:23:43.628Z,86.05
2018-11-10T03:26:11.293Z,85.94
2018-11-10T03:28:39.037Z,86.34
2018-11-10T03:31:06.721Z,86.13
2018-11-10T03:33:34.450Z,85.34
2018-11-10T03:36:02.177Z,85.80
2018-11-10T03:38:29.933Z,85.49
2018-11-10T03:40:57.625Z,85.05
2018-11-10T03:43:25.320Z,85.67
2018-11-10T03:45:52.992Z,85.81
2018-11-10T03:48:20.736Z,85.51
2018-11-10T03:50:48.382Z,85.37
2018-11-10T03:53:16.072Z,85.39
2018-11-10T03:55:43.773Z,85.38
2018-11-10T03:58:11.484Z,85.18
2018-11-10T04:00:39.208Z,84.91
2018-11-10T04:03:06.933Z,84.75
2018-11-10T04:05:34.635Z,84.75
2018-11-10T04:08:02.380Z,84.46
2018-11-10T04:10:30.133Z,84.84
2018-11-10T04:12:57.870Z,84.89
2018-11-10T04:15:25.714Z,84.94
2018-11-10T04:17:53.373Z,85.04
2018-11-10T04:20:21.137Z,84.96
2018-11-10T04:22:48.881Z,84.44
2018-11-10T04:25:16.612Z,84.01
2018-11-10T04:27:44.461Z,84.02
2018-11-10T04:30:12.125Z,84.36
2018-11-10T04:32:39.780Z,84.15
2018-11-10T04:35:07.805Z,84.19
2018-11-10T04:37:35.723Z,84.16
2018-11-10T04:40:03.693Z,84.31
2018-11-10T04:42:31.422Z,83.91
2018-11-10T04:44:59.108Z,83.67
2018-11-10T04:47:26.836Z,83.82
2018-11-10T04:49:54.654Z,83.41
2018-11-10T04:52:22.221Z,83.29
2018-11-10T04:54:49.845Z,83.34
2018-11-10T04:57:17.609Z,83.13
2018-11-10T04:59:45.285Z,83.31
2018-11-10T05:02:13.002Z,83.49
2018-11-10T05:04:40.737Z,83.22
2018-11-10T05:07:08.443Z,83.15
2018-11-10T05:09:36.226Z,83.15
2018-11-10T05:12:04.145Z,83.33
2018-11-10T05:14:31.838Z,83.21
2018-11-10T05:16:59.589Z,83.07
2018-11-10T05:19:27.292Z,83.48
2018-11-10T05:21:55.001Z,83.14
2018-11-10T05:24:23.105Z,83.05
2018-11-10T05:26:50.760Z,83.15
2018-11-10T05:29:18.493Z,83.71
2018-11-10T05:31:46.184Z,83.25
2018-11-10T05:34:13.905Z,83.29
2018-11-10T05:36:41.588Z,83.46
2018-11-10T05:39:09.837Z,83.59
2018-11-10T05:41:37.590Z,83.33
2018-11-10T05:44:05.305Z,83.54
2018-11-10T05:46:33.052Z,83.77
2018-11-10T05:49:00.828Z,83.49
2018-11-10T05:51:28.589Z,83.43
2018-11-10T05:53:56.236Z,83.60
2018-11-10T05:56:23.903Z,83.71
2018-11-10T05:58:51.624Z,83.52
2018-11-10T06:01:19.292Z,83.14
2018-11-10T06:03:46.986Z,83.51
2018-11-10T06:06:14.628Z,84.19
2018-11-10T06:08:42.356Z,83.76
2018-11-10T06:11:10.057Z,83.74
2018-11-10T06:13:37.784Z,84.35
2018-11-10T06:16:05.787Z,84.50
2018-11-10T06:18:33.449Z,84.76
2018-11-10T06:21:01.118Z,84.35
2018-11-10T06:23:28.862Z,84.87
2018-11-10T06:25:56.561Z,85.36
2018-11-10T06:28:24.197Z,85.27
2018-11-10T06:30:52.156Z,85.54
2018-11-10T06:33:19.853Z,85.33
2018-11-10T06:35:47.560Z,85.07
2018-11-10T06:38:15.217Z,85.54
2018-11-10T06:40:42.866Z,86.06
2018-11-10T06:43:10.513Z,86.03
2018-11-10T06:45:38.240Z,85.94
2018-11-10T06:48:06.197Z,86.31
2018-11-10T06:50:34.309Z,86.52
2018-11-10T06:53:02.823Z,86.08
2018-11-10T06:55:30.720Z,86.68
2018-11-10T06:57:58.685Z,86.46
2018-11-10T07:00:26.512Z,85.84
2018-11-10T07:02:54.438Z,87.20
2018-11-10T07:05:22.377Z,87.20
2018-11-10T07:07:50.108Z,87.23
2018-11-10T07:10:17.801Z,86.92
2018-11-10T07:12:45.507Z,87.01
2018-11-10T07:15:13.261Z,86.93
2018-11-10T07:17:41.088Z,87.18
2018-11-10T07:20:08.802Z,87.62
2018-11-10T07:22:36.574Z,87.15
2018-11-10T07:25:05.155Z,88.08
2018-11-10T07:27:32.832Z,88.16
2018-11-10T07:30:00.473Z,87.89
2018-11-10T07:32:28.903Z,86.90
2018-11-10T07:34:56.615Z,86.76
2018-11-10T07:37:24.405Z,87.29
2018-11-10T07:39:53.128Z,86.45
2018-11-10T07:42:21.737Z,87.20
2018-11-10T07:44:49.428Z,87.21
2018-11-10T07:47:17.832Z,86.96
2018-11-10T07:49:46.236Z,87.16
2018-11-10T07:52:13.925Z,87.46
2018-11-10T07:54:41.605Z,87.38
2018-11-10T07:57:09.328Z,87.50
2018-11-10T07:59:36.988Z,86.99
2018-11-10T08:02:04.972Z,86.86
2018-11-10T08:04:32.606Z,86.86
2018-11-10T08:07:00.293Z,87.32
2018-11-10T08:09:27.988Z,87.02
2018-11-10T08:11:55.652Z,87.64
2018-11-10T08:14:23.359Z,87.37
2018-11-10T08:16:51.810Z,88.26
2018-11-10T08:19:19.528Z,87.53
2018-11-10T08:21:47.764Z,87.33
2018-11-10T08:24:15.409Z,86.34
2018-11-10T08:26:43.125Z,86.97
2018-11-10T08:29:10.916Z,86.72
2018-11-10T08:31:38.761Z,86.95
2018-11-10T08:34:06.510Z,87.02
2018-11-10T08:36:34.213Z,86.10
2018-11-10T08:39:02.346Z,85.30
2018-11-10T08:41:29.999Z,86.06
2018-11-10T08:43:58.074Z,86.62
2018-11-10T08:46:25.735Z,86.64
2018-11-10T08:48:53.580Z,86.09
2018-11-10T08:51:21.244Z,85.67
2018-11-10T08:53:48.977Z,85.76
2018-11-10T08:56:17.221Z,85.15
2018-11-10T08:58:48.652Z,85.22
2018-11-10T09:01:16.948Z,86.14
2018-11-10T09:03:45.736Z,85.87
2018-11-10T09:06:13.452Z,85.54
2018-11-10T09:08:41.325Z,85.44
2018-11-10T09:11:09.229Z,85.62
2018-11-10T09:13:37.006Z,85.77
2018-11-10T09:16:04.783Z,85.38
2018-11-10T09:18:32.461Z,84.90
2018-11-10T09:21:00.264Z,85.10
2018-11-10T09:23:28.040Z,85.87
2018-11-10T09:25:55.791Z,85.21
2018-11-10T09:28:23.462Z,84.82
2018-11-10T09:30:51.266Z,85.75
2018-11-10T09:33:18.925Z,85.10
2018-11-10T09:35:46.664Z,85.71
2018-11-10T09:38:14.373Z,85.76
2018-11-10T09:40:42.085Z,84.94
2018-11-10T09:43:09.794Z,84.81
2018-11-10T09:45:37.516Z,84.68
2018-11-10T09:48:05.566Z,84.96
2018-11-10T09:50:33.320Z,84.24
2018-11-10T09:53:01.039Z,85.30
2018-11-10T09:55:28.734Z,85.57
2018-11-10T09:57:56.405Z,83.17
2018-11-10T10:00:24.135Z,82.44
2018-11-10T10:02:51.989Z,82.45
2018-11-10T10:05:19.516Z,82.62
2018-11-10T10:07:47.192Z,81.97
2018-11-10T10:10:16.377Z,82.20
2018-11-10T10:12:44.592Z,81.84
2018-11-10T10:15:13.624Z,80.85
2018-11-10T10:17:42.416Z,80.93
2018-11-10T10:20:13.180Z,82.46
2018-11-10T10:22:41.104Z,81.40
2018-11-10T10:25:12.460Z,81.90
2018-11-10T10:27:40.229Z,80.89
2018-11-10T10:30:14.237Z,81.18
2018-11-10T10:32:42.633Z,81.38
2018-11-10T10:35:10.720Z,80.71
2018-11-10T10:37:38.380Z,80.20
2018-11-10T10:40:08.358Z,80.12
2018-11-10T10:42:36.130Z,80.33
2018-11-10T10:45:05.448Z,79.16
2018-11-10T10:47:33.103Z,78.25
2018-11-10T10:50:00.820Z,77.73
2018-11-10T10:52:28.629Z,78.04
2018-11-10T10:54:56.345Z,76.96
2018-11-10T10:57:24.077Z,77.64
2018-11-10T10:59:51.737Z,78.22
2018-11-10T11:02:25.077Z,79.26
2018-11-10T11:04:54.117Z,77.73
2018-11-10T11:07:22.785Z,78.71
2018-11-10T11:09:50.457Z,78.17
2018-11-10T11:12:18.156Z,78.81
2018-11-10T11:14:45.810Z,78.86
2018-11-10T11:17:13.515Z,77.79
2018-11-10T11:19:41.345Z,76.19
2018-11-10T11:22:09.046Z,76.17
2018-11-10T11:24:37.212Z,70.86
2018-11-10T11:27:05.194Z,74.45
2018-11-10T11:29:36.454Z,71.21
2018-11-10T11:32:04.988Z,75.07
2018-11-10T11:34:32.745Z,72.68
2018-11-10T11:37:00.501Z,74.83
2018-11-10T11:39:28.238Z,73.68
2018-11-10T11:41:55.938Z,74.05
2018-11-10T11:44:23.584Z,71.54
2018-11-10T11:46:51.284Z,72.20
2018-11-10T11:49:18.985Z,74.15
2018-11-10T11:51:46.668Z,70.82
2018-11-10T11:54:14.333Z,72.01
2018-11-10T11:56:42.147Z,69.56
2018-11-10T11:59:09.773Z,71.41
2018-11-10T12:01:37.470Z,72.58
2018-11-10T12:04:05.369Z,68.75
2018-11-10T12:06:33.088Z,70.88
2018-11-10T12:09:00.852Z,72.50
2018-11-10T12:11:28.688Z,72.50
2018-11-10T12:13:56.396Z,71.47
2018-11-10T12:16:27.637Z,72.50
2018-11-10T12:18:51.832Z,73.35
2018-11-10T12:21:19.549Z,71.52
2018-11-10T12:23:47.312Z,71.12
2018-11-10T12:26:14.996Z,68.83
2018-11-10T12:28:42.915Z,70.62
2018-11-10T12:31:10.694Z,69.37
2018-11-10T12:33:38.377Z,67.67
2018-11-10T12:36:06.224Z,66.70
2018-11-10T12:38:33.994Z,69.05
2018-11-10T12:41:01.701Z,69.90
2018-11-10T12:43:29.362Z,67.08
2018-11-10T12:45:57.272Z,66.79
2018-11-10T12:48:24.988Z,65.03
2018-11-10T12:50:52.674Z,70.05
2018-11-10T12:53:20.425Z,66.49
2018-11-10T12:55:48.145Z,66.89
2018-11-10T12:58:15.823Z,67.29
2018-11-10T13:00:43.516Z,64.33
2018-11-10T13:03:11.225Z,65.13
2018-11-10T13:05:38.952Z,68.79
2018-11-10T13:08:06.645Z,67.76
2018-11-10T13:10:34.442Z,65.83
2018-11-10T13:13:02.145Z,64.07
2018-11-10T13:15:30.177Z,65.75
2018-11-10T13:17:57.912Z,67.85
2018-11-10T13:20:25.633Z,67.53
2018-11-10T13:22:53.255Z,71.38
2018-11-10T13:25:20.987Z,69.21
2018-11-10T13:27:48.669Z,70.29
2018-11-10T13:30:16.284Z,68.48
2018-11-10T13:32:43.996Z,70.29
2018-11-10T13:35:11.819Z,70.89
2018-11-10T13:37:40.044Z,69.91
2018-11-10T13:40:08.429Z,69.23
2018-11-10T13:42:36.176Z,69.08
2018-11-10T13:45:05.070Z,69.32
2018-11-10T13:47:32.797Z,68.07
2018-11-10T13:50:01.309Z,68.12
2018-11-10T13:52:29.304Z,68.66
2018-11-10T13:54:56.697Z,68.30
2018-11-10T13:57:24.767Z,68.64
2018-11-10T13:59:52.459Z,68.45
2018-11-10T14:02:20.133Z,68.37
2018-11-10T14:04:47.812Z,67.42
2018-11-10T14:07:15.452Z,69.10
2018-11-10T14:09:43.069Z,69.27
2018-11-10T14:12:10.754Z,69.32
2018-11-10T14:14:38.396Z,69.53
2018-11-10T14:17:06.152Z,69.56
2018-11-10T14:19:33.960Z,71.52
2018-11-10T14:22:01.617Z,70.97
2018-11-10T14:24:29.367Z,70.21
2018-11-10T14:26:57.078Z,71.12
2018-11-10T14:29:24.773Z,70.86
2018-11-10T14:31:52.434Z,71.49
2018-11-10T14:34:20.094Z,70.71
2018-11-10T14:36:47.858Z,72.02
2018-11-10T14:39:15.593Z,72.57
2018-11-10T14:41:43.377Z,72.17
2018-11-10T14:44:11.162Z,74.40
2018-11-10T14:46:38.848Z,74.58
2018-11-10T14:49:07.117Z,74.49
2018-11-10T14:51:34.923Z,75.16
2018-11-10T14:54:02.925Z,75.62
2018-11-10T14:56:30.620Z,76.03
2018-11-10T14:58:58.326Z,76.97
2018-11-10T15:01:26.080Z,76.11
2018-11-10T15:03:53.770Z,76.08
2018-11-10T15:06:21.541Z,76.21
2018-11-10T15:08:49.209Z,75.66
2018-11-10T15:11:16.860Z,76.53
2018-11-10T15:13:44.600Z,77.07
2018-11-10T15:16:12.248Z,76.67
2018-11-10T15:18:39.864Z,77.04
2018-11-10T15:21:07.615Z,78.05
2018-11-10T15:23:35.268Z,77.57
2018-11-10T15:26:02.947Z,77.24
2018-11-10T15:28:30.630Z,77.85
2018-11-10T15:30:58.297Z,78.42
2018-11-10T15:33:25.988Z,77.83
2018-11-10T15:35:53.633Z,78.86
2018-11-10T15:38:21.572Z,79.14
2018-11-10T15:40:49.298Z,79.60
2018-11-10T15:43:17.021Z,78.92
2018-11-10T15:45:44.708Z,79.36
2018-11-10T15:48:12.426Z,80.13
2018-11-10T15:50:40.217Z,79.13
2018-11-10T15:53:07.833Z,78.96
2018-11-10T15:55:35.510Z,79.01
2018-11-10T15:58:03.199Z,80.41
2018-11-10T16:00:30.848Z,80.59
2018-11-10T16:02:58.573Z,80.86
2018-11-10T16:05:26.309Z,80.78
2018-11-10T16:07:53.948Z,80.14
2018-11-10T16:10:21.840Z,81.06
2018-11-10T16:12:49.461Z,81.47
2018-11-10T16:15:17.701Z,80.62
2018-11-10T16:17:45.453Z,81.05
2018-11-10T16:20:15.108Z,80.24
2018-11-10T16:22:44.182Z,81.67
2018-11-10T16:25:11.846Z,81.54
2018-11-10T16:27:43.927Z,81.87
2018-11-10T16:30:13.268Z,80.53
2018-11-10T16:32:41.108Z,81.20
2018-11-10T16:35:09.068Z,80.49
2018-11-10T16:37:36.760Z,80.34
2018-11-10T16:40:07.890Z,80.50
2018-11-10T16:42:35.865Z,80.20
2018-11-10T16:45:03.937Z,80.59
2018-11-10T16:47:31.673Z,80.70
2018-11-10T16:49:59.373Z,81.45
2018-11-10T16:52:27.084Z,80.91
2018-11-10T16:54:54.825Z,80.48
2018-11-10T16:57:22.477Z,80.59
2018-11-10T16:59:50.128Z,81.65
2018-11-10T17:02:17.900Z,80.73
2018-11-10T17:04:45.561Z,81.80
2018-11-10T17:07:13.321Z,81.69
2018-11-10T17:09:40.972Z,81.04
2018-11-10T17:12:08.733Z,81.86
2018-11-10T17:14:36.500Z,81.82
2018-11-10T17:17:04.579Z,82.26
2018-11-10T17:19:32.223Z,82.09
2018-11-10T17:22:00.043Z,82.28
2018-11-10T17:24:27.609Z,81.67
2018-11-10T17:26:55.294Z,81.41
2018-11-10T17:29:22.989Z,81.34
2018-11-10T17:31:50.769Z,81.74
2018-11-10T17:34:18.562Z,81.90
2018-11-10T17:36:46.285Z,81.22
2018-11-10T17:39:14.137Z,82.00
2018-11-10T17:41:41.753Z,81.77
2018-11-10T17:44:10.028Z,81.38
2018-11-10T17:46:37.649Z,81.37
2018-11-10T17:49:05.464Z,81.62
2018-11-10T17:51:33.207Z,81.03
2018-11-10T17:54:00.909Z,80.56
2018-11-10T17:56:28.848Z,80.68
2018-11-10T17:58:56.552Z,81.49
2018-11-10T18:01:24.218Z,81.58
2018-11-10T18:03:51.892Z,80.85
2018-11-10T18:06:19.532Z,81.49
2018-11-10T18:08:47.290Z,81.74
2018-11-10T18:11:15.105Z,81.63
2018-11-10T18:13:42.864Z,81.62
2018-11-10T18:16:10.701Z,81.37
2018-11-10T18:18:38.452Z,81.84
2018-11-10T18:21:06.141Z,81.38
2018-11-10T18:23:33.925Z,80.92
2018-11-10T18:26:01.623Z,81.60
2018-11-10T18:28:29.290Z,81.29
2018-11-10T18:30:57.035Z,81.60
2018-11-10T18:33:24.760Z,81.78
2018-11-10T18:35:52.503Z,81.73
2018-11-10T18:38:20.229Z,81.40
2018-11-10T18:40:48.144Z,81.35
2018-11-10T18:43:15.868Z,81.52
2018-11-10T18:45:43.493Z,81.37
2018-11-10T18:48:11.327Z,81.02
2018-11-10T18:50:39.000Z,80.62
2018-11-10T18:53:06.679Z,80.91
2018-11-10T18:55:34.337Z,80.71
2018-11-10T18:58:02.121Z,81.16
2018-11-10T19:00:29.697Z,81.56
2018-11-10T19:02:57.650Z,80.98
2018-11-10T19:05:25.322Z,82.39
2018-11-10T19:07:53.100Z,82.17
2018-11-10T19:10:20.865Z,82.83
2018-11-10T19:12:48.810Z,82.57
2018-11-10T19:15:18.539Z,83.01
2018-11-10T19:17:46.345Z,82.07
2018-11-10T19:20:14.606Z,82.79
2018-11-10T19:22:42.315Z,83.93
2018-11-10T19:25:11.577Z,83.12
2018-11-10T19:27:39.321Z,82.37
2018-11-10T19:30:11.078Z,82.98
2018-11-10T19:32:38.730Z,82.77
2018-11-10T19:35:06.492Z,82.56
2018-11-10T19:37:34.148Z,82.84
2018-11-10T19:40:01.960Z,82.81
2018-11-10T19:42:29.748Z,83.24
2018-11-10T19:44:57.540Z,82.80
2018-11-10T19:47:25.264Z,82.85
2018-11-10T19:49:52.925Z,83.10
2018-11-10T19:52:20.558Z,82.74
2018-11-10T19:54:48.324Z,82.97
2018-11-10T19:57:16.364Z,83.59
2018-11-10T19:59:44.041Z,83.13
2018-11-10T20:02:13.889Z,82.30
2018-11-10T20:04:41.621Z,83.61
2018-11-10T20:07:09.369Z,82.51
2018-11-10T20:09:37.205Z,82.55
2018-11-10T20:12:17.641Z,82.34
2018-11-10T20:14:45.310Z,82.48
2018-11-10T20:17:13.013Z,82.11
2018-11-10T20:19:41.983Z,82.32
2018-11-10T20:22:09.551Z,82.72
2018-11-10T20:24:41.311Z,83.28
2018-11-10T20:27:09.129Z,83.89
2018-11-10T20:29:36.821Z,83.23
2018-11-10T20:32:04.673Z,83.63
2018-11-10T20:34:32.381Z,82.29
2018-11-10T20:37:00.125Z,82.95
2018-11-10T20:39:27.810Z,84.46
2018-11-10T20:41:55.488Z,83.53
2018-11-10T20:44:23.257Z,83.16
2018-11-10T20:46:50.949Z,83.40
2018-11-10T20:49:19.129Z,83.42
2018-11-10T20:51:46.820Z,84.45
2018-11-10T20:54:14.538Z,83.20
2018-11-10T20:56:43.049Z,83.55
2018-11-10T20:59:12.007Z,83.49
2018-11-10T21:01:39.734Z,84.16
2018-11-10T21:04:09.334Z,83.71
2018-11-10T21:06:38.839Z,84.01
2018-11-10T21:09:15.728Z,84.40
2018-11-10T21:11:43.624Z,84.79
2018-11-10T21:14:11.368Z,84.59
2018-11-10T21:16:39.211Z,84.78
2018-11-10T21:19:08.613Z,84.68
2018-11-10T21:21:37.123Z,85.70
2018-11-10T21:24:05.405Z,85.72
2018-11-10T21:26:33.134Z,84.68
2018-11-10T21:29:01.084Z,84.61
2018-11-10T21:31:28.743Z,85.71
2018-11-10T21:33:56.512Z,85.93
2018-11-10T21:36:24.104Z,85.67
2018-11-10T21:38:51.814Z,84.71
2018-11-10T21:41:19.898Z,86.71
2018-11-10T21:43:47.836Z,86.15
2018-11-10T21:46:15.535Z,85.85
2018-11-10T21:51:15.612Z,86.58
2018-11-10T21:53:47.889Z,86.15
2018-11-10T21:56:15.747Z,85.48
2018-11-10T21:58:44.205Z,86.16
2018-11-10T22:01:12.393Z,86.22
2018-11-10T22:03:40.353Z,85.67
2018-11-10T22:06:08.162Z,86.56
2018-11-10T22:08:35.816Z,87.44
2018-11-10T22:11:04.228Z,87.53
2018-11-10T22:13:31.942Z,87.51
2018-11-10T22:15:59.780Z,86.90
2018-11-10T22:18:27.369Z,86.80
2018-11-10T22:20:55.396Z,86.29
2018-11-10T22:23:23.320Z,87.07
2018-11-10T22:25:51.158Z,86.36
2018-11-10T22:28:19.420Z,86.09
2018-11-10T22:30:47.070Z,86.00
2018-11-10T22:33:14.916Z,86.74
2018-11-10T22:35:42.633Z,85.80
2018-11-10T22:38:10.248Z,86.31
2018-11-10T22:40:37.930Z,86.78
2018-11-10T22:43:06.580Z,87.48
2018-11-10T22:45:34.488Z,86.47
2018-11-10T22:48:02.397Z,87.23
2018-11-10T22:50:30.052Z,86.52
2018-11-10T22:52:57.712Z,86.37
2018-11-10T22:55:25.817Z,86.49
2018-11-10T22:57:53.593Z,86.16
2018-11-10T23:00:28.165Z,85.49
2018-11-10T23:02:58.406Z,86.40
2018-11-10T23:05:27.214Z,86.28
2018-11-10T23:07:55.193Z,86.73
2018-11-10T23:10:23.233Z,86.46
2018-11-10T23:12:51.901Z,86.26
2018-11-10T23:15:19.589Z,86.60
2018-11-10T23:17:47.870Z,86.16
2018-11-10T23:20:17.407Z,86.18
2018-11-10T23:22:45.232Z,85.45
2018-11-10T23:25:14.125Z,86.00
2018-11-10T23:27:41.873Z,85.47
2018-11-10T23:30:14.893Z,86.21
2018-11-10T23:32:42.553Z,86.62
2018-11-10T23:35:10.834Z,85.94
2018-11-10T23:37:38.805Z,85.45
2018-11-10T23:40:09.417Z,85.73
2018-11-10T23:42:37.247Z,85.12
2018-11-10T23:45:06.382Z,84.94
2018-11-10T23:47:34.178Z,84.57
2018-11-10T23:50:01.985Z,84.31
2018-11-10T23:52:29.704Z,85.37
2018-11-10T23:54:57.903Z,85.79
2018-11-10T23:57:26.117Z,85.20
2018-11-10T23:59:53.848Z,85.88
